Terminal Aerodrome Forecast
Issued by NWS Corpus Christi, TX

Home | Current Version | Previous Version | Text Only | Print | Product List | Glossary On
Versions: 1 2 3 4 5 6 7 8 9 10 11 12 13 14 15
000
FTUS44 KCRP 290533
TAFCRP
TAF
KCRP 290533Z 2906/3006 04009KT P6SM SCT030
     FM291000 02005KT P6SM BKN025
     FM291700 05012KT P6SM VCTS BKN030CB OVC100 PROB30 2917/2920 3SM
      TSRA OVC025CB
     FM292100 09012G18KT P6SM SCT035 BKN150
     FM300300 09009KT P6SM SCT025 BKN250
      TEMPO 3004/3006 BKN025 OVC250=

USA.gov is the U.S. government's official web portal to all federal, state and local government web resources and services.